createdAt,value
2022-09-17T00:01:23.196Z,97995.28
2022-09-17T00:04:04.487Z,97988.56
2022-09-17T00:06:35.514Z,97992.16
2022-09-17T00:09:07.690Z,97992.06
2022-09-17T00:11:38.555Z,97992.28
2022-09-17T00:14:09.172Z,97998.66
2022-09-17T00:16:43.507Z,97992.19
2022-09-17T00:19:22.794Z,97996.22
2022-09-17T00:21:49.887Z,97997.78
2022-09-17T00:24:18.252Z,98000.66
2022-09-17T00:26:45.079Z,98002.66
2022-09-17T00:29:12.071Z,98003.00
2022-09-17T00:31:39.485Z,98007.69
2022-09-17T00:34:07.415Z,98001.84
2022-09-17T00:36:39.403Z,97998.47
2022-09-17T00:39:08.956Z,98000.06
2022-09-17T00:41:37.928Z,98007.38
2022-09-17T00:44:40.134Z,98000.22
2022-09-17T00:47:28.988Z,98001.75
2022-09-17T00:50:17.345Z,97998.88
2022-09-17T00:52:55.344Z,97993.25
2022-09-17T00:55:28.687Z,97992.66
2022-09-17T00:58:01.399Z,97993.63
2022-09-17T01:00:31.954Z,97993.75
2022-09-17T01:02:59.216Z,98004.94
2022-09-17T01:05:42.244Z,98003.81
2022-09-17T01:08:21.360Z,98007.78
2022-09-17T01:11:29.687Z,98008.28
2022-09-17T01:14:19.247Z,98005.63
2022-09-17T01:17:15.549Z,98009.38
2022-09-17T01:20:00.553Z,97994.91
2022-09-17T01:22:42.788Z,97997.78
2022-09-17T01:25:24.663Z,97999.22
2022-09-17T01:28:22.539Z,97999.56
2022-09-17T01:30:51.986Z,98002.03
2022-09-17T01:33:52.592Z,98002.31
2022-09-17T01:36:52.538Z,98005.53
2022-09-17T01:40:00.491Z,98014.41
2022-09-17T01:42:37.776Z,97999.41
2022-09-17T01:45:49.642Z,98010.19
2022-09-17T01:48:25.618Z,98004.47
2022-09-17T01:50:58.843Z,98011.50
2022-09-17T01:53:45.898Z,98012.97
2022-09-17T01:56:19.923Z,98018.22
2022-09-17T01:58:58.367Z,98014.88
2022-09-17T02:01:31.186Z,98014.56
2022-09-17T02:04:14.691Z,98015.50
2022-09-17T02:06:51.627Z,98012.50
2022-09-17T02:09:26.535Z,98008.72
2022-09-17T02:11:59.958Z,98015.41
2022-09-17T02:14:42.449Z,98016.13
2022-09-17T02:17:22.498Z,98023.91
2022-09-17T02:19:49.211Z,98027.72
2022-09-17T02:22:32.058Z,98025.44
2022-09-17T02:25:17.831Z,98019.34
2022-09-17T02:28:23.329Z,98023.88
2022-09-17T02:30:50.449Z,98024.56
2022-09-17T02:33:20.333Z,98019.81
2022-09-17T02:35:47.263Z,98020.41
2022-09-17T02:38:13.891Z,98017.53
2022-09-17T02:40:54.638Z,98016.13
2022-09-17T02:43:37.970Z,98011.09
2022-09-17T02:46:10.429Z,98019.25
2022-09-17T02:49:46.209Z,98014.69
2022-09-17T02:52:44.499Z,98016.63
2022-09-17T02:55:35.546Z,98021.41
2022-09-17T02:58:05.022Z,98016.00
2022-09-17T03:00:32.190Z,98027.13
2022-09-17T03:03:13.626Z,98021.41
2022-09-17T03:05:43.729Z,98018.97
2022-09-17T03:08:14.347Z,98024.53
2022-09-17T03:10:41.199Z,98024.72
2022-09-17T03:13:07.896Z,98022.34
2022-09-17T03:15:34.361Z,98033.44
2022-09-17T03:18:01.783Z,98019.94
2022-09-17T03:20:28.270Z,98018.47
2022-09-17T03:22:54.712Z,98022.78
2022-09-17T03:25:21.158Z,98022.44
2022-09-17T03:27:48.218Z,98023.97
2022-09-17T03:30:14.739Z,98027.00
2022-09-17T03:32:41.182Z,98023.16
2022-09-17T03:35:08.120Z,98021.84
2022-09-17T03:37:34.551Z,98027.34
2022-09-17T03:40:01.219Z,98012.50
2022-09-17T03:42:27.771Z,98016.69
2022-09-17T03:44:54.194Z,98021.13
2022-09-17T03:47:20.628Z,98012.97
2022-09-17T03:49:47.113Z,98023.63
2022-09-17T03:52:13.852Z,98024.94
2022-09-17T03:54:40.287Z,98029.75
2022-09-17T03:57:06.703Z,98021.50
2022-09-17T03:59:33.168Z,98030.09
2022-09-17T04:01:59.742Z,98030.94
2022-09-17T04:04:26.293Z,98031.41
2022-09-17T04:06:52.786Z,98031.28
2022-09-17T04:09:19.263Z,98039.78
2022-09-17T04:11:45.786Z,98036.94
2022-09-17T04:14:12.231Z,98028.59
2022-09-17T04:16:38.690Z,98030.03
2022-09-17T04:19:05.243Z,98033.25
2022-09-17T04:21:31.714Z,98036.94
2022-09-17T04:23:58.259Z,98041.97
2022-09-17T04:26:24.707Z,98040.78
2022-09-17T04:28:51.160Z,98036.50
2022-09-17T04:31:17.694Z,98036.00
2022-09-17T04:33:44.183Z,98035.28
2022-09-17T04:36:10.599Z,98044.88
2022-09-17T04:38:37.078Z,98044.63
2022-09-17T04:41:07.193Z,98045.56
2022-09-17T04:43:34.113Z,98043.66
2022-09-17T04:46:00.934Z,98052.06
2022-09-17T04:48:27.371Z,98055.66
2022-09-17T04:50:53.860Z,98046.78
2022-09-17T04:53:20.290Z,98063.91
2022-09-17T04:55:46.802Z,98053.38
2022-09-17T04:58:13.487Z,98060.66
2022-09-17T05:00:41.715Z,98054.41
2022-09-17T05:03:08.571Z,98061.47
2022-09-17T05:05:35.130Z,98063.41
2022-09-17T05:08:01.940Z,98071.38
2022-09-17T05:10:28.511Z,98066.13
2022-09-17T05:12:56.775Z,98068.88
2022-09-17T05:15:25.810Z,98063.13
2022-09-17T05:17:52.559Z,98072.84
2022-09-17T05:20:20.146Z,98084.81
2022-09-17T05:22:52.018Z,98068.66
2022-09-17T05:25:24.822Z,98081.25
2022-09-17T05:27:53.355Z,98076.22
2022-09-17T05:30:20.659Z,98082.91
2022-09-17T05:32:47.305Z,98090.69
2022-09-17T05:35:14.252Z,98080.28
2022-09-17T05:37:40.980Z,98093.69
2022-09-17T05:40:09.145Z,98091.50
2022-09-17T05:42:35.928Z,98088.63
2022-09-17T05:45:02.591Z,98094.63
2022-09-17T05:47:29.761Z,98092.00
2022-09-17T05:49:56.326Z,98092.63
2022-09-17T05:52:26.184Z,98102.06
2022-09-17T05:54:52.638Z,98104.94
2022-09-17T05:57:20.364Z,98106.50
2022-09-17T05:59:46.835Z,98111.16
2022-09-17T06:02:14.077Z,98107.06
2022-09-17T06:04:40.895Z,98122.59
2022-09-17T06:07:09.021Z,98108.38
2022-09-17T06:09:37.562Z,98119.88
2022-09-17T06:12:07.166Z,98115.97
2022-09-17T06:14:33.588Z,98123.38
2022-09-17T06:17:00.288Z,98121.69
2022-09-17T06:19:27.815Z,98126.00
2022-09-17T06:21:54.751Z,98127.22
2022-09-17T06:24:21.238Z,98123.28
2022-09-17T06:26:47.675Z,98120.09
2022-09-17T06:29:15.128Z,98130.13
2022-09-17T06:31:44.737Z,98128.00
2022-09-17T06:34:12.151Z,98127.66
2022-09-17T06:36:38.825Z,98120.94
2022-09-17T06:39:05.667Z,98134.94
2022-09-17T06:41:32.986Z,98138.19
2022-09-17T06:43:59.557Z,98137.41
2022-09-17T06:46:26.571Z,98141.13
2022-09-17T06:48:53.035Z,98142.81
2022-09-17T06:51:19.595Z,98150.84
2022-09-17T06:53:46.215Z,98148.31
2022-09-17T06:56:12.859Z,98145.56
2022-09-17T06:58:41.825Z,98148.22
2022-09-17T07:01:11.331Z,98146.16
2022-09-17T07:03:38.423Z,98148.69
2022-09-17T07:06:12.362Z,98145.72
2022-09-17T07:08:39.511Z,98147.88
2022-09-17T07:11:06.593Z,98140.06
2022-09-17T07:13:33.033Z,98148.47
2022-09-17T07:16:02.295Z,98148.22
2022-09-17T07:18:29.250Z,98148.72
2022-09-17T07:20:58.530Z,98155.53
2022-09-17T07:23:28.666Z,98155.91
2022-09-17T07:25:59.603Z,98145.59
2022-09-17T07:28:28.679Z,98146.31
2022-09-17T07:30:56.296Z,98142.47
2022-09-17T07:33:26.645Z,98139.47
2022-09-17T07:35:58.979Z,98145.19
2022-09-17T07:38:27.346Z,98146.22
2022-09-17T07:41:03.658Z,98150.53
2022-09-17T07:43:33.715Z,98159.88
2022-09-17T07:46:03.792Z,98146.81
2022-09-17T07:48:31.107Z,98150.28
2022-09-17T07:50:58.314Z,98147.78
2022-09-17T07:53:25.705Z,98145.25
2022-09-17T07:55:58.466Z,98149.22
2022-09-17T07:58:34.109Z,98153.84
2022-09-17T08:01:09.182Z,98162.69
2022-09-17T08:03:38.400Z,98160.50
2022-09-17T08:06:14.580Z,98149.72
2022-09-17T08:08:42.329Z,98167.72
2022-09-17T08:11:23.696Z,98160.31
2022-09-17T08:13:59.737Z,98164.50
2022-09-17T08:16:26.475Z,98162.84
2022-09-17T08:18:57.966Z,98163.69
2022-09-17T08:21:24.914Z,98153.72
2022-09-17T08:23:51.473Z,98155.66
2022-09-17T08:26:22.656Z,98165.72
2022-09-17T08:28:54.905Z,98165.72
2022-09-17T08:31:23.926Z,98163.06
2022-09-17T08:33:50.880Z,98156.72
2022-09-17T08:36:21.043Z,98155.66
2022-09-17T08:38:48.373Z,98158.16
2022-09-17T08:41:33.579Z,98154.94
2022-09-17T08:44:33.125Z,98151.94
2022-09-17T08:47:13.813Z,98152.28
2022-09-17T08:49:51.978Z,98150.72
2022-09-17T08:52:40.100Z,98148.56
2022-09-17T08:55:11.161Z,98154.19
2022-09-17T08:57:47.627Z,98165.25
2022-09-17T09:00:33.375Z,98172.78
2022-09-17T09:03:30.655Z,98167.63
2022-09-17T09:05:58.373Z,98178.28
2022-09-17T09:08:56.885Z,98166.16
2022-09-17T09:11:27.653Z,98176.69
2022-09-17T09:14:10.656Z,98176.84
2022-09-17T09:16:45.030Z,98171.88
2022-09-17T09:19:29.080Z,98169.75
2022-09-17T09:22:35.770Z,98181.06
2022-09-17T09:25:36.906Z,98166.56
2022-09-17T09:28:44.827Z,98173.41
2022-09-17T09:31:38.176Z,98168.84
2022-09-17T09:34:05.616Z,98168.13
2022-09-17T09:36:33.693Z,98163.81
2022-09-17T09:39:06.650Z,98166.22
2022-09-17T09:41:54.128Z,98163.44
2022-09-17T09:44:20.602Z,98169.91
2022-09-17T09:47:07.889Z,98164.72
2022-09-17T09:50:05.506Z,98159.19
2022-09-17T09:52:50.751Z,98159.41
2022-09-17T09:56:01.024Z,98147.91
2022-09-17T09:58:38.856Z,98159.88
2022-09-17T10:01:22.783Z,98158.88
2022-09-17T10:03:53.922Z,98159.31
2022-09-17T10:06:21.117Z,98163.59
2022-09-17T10:08:50.860Z,98169.56
2022-09-17T10:11:28.519Z,98156.41
2022-09-17T10:14:25.383Z,98167.50
2022-09-17T10:17:20.834Z,98153.44
2022-09-17T10:20:19.429Z,98148.28
2022-09-17T10:22:49.513Z,98150.41
2022-09-17T10:25:22.249Z,98151.75
2022-09-17T10:27:49.748Z,98149.53
2022-09-17T10:30:18.889Z,98155.41
2022-09-17T10:33:14.125Z,98148.84
2022-09-17T10:35:40.580Z,98158.06
2022-09-17T10:38:33.089Z,98156.75
2022-09-17T10:41:22.500Z,98157.69
2022-09-17T10:43:50.577Z,98153.56
2022-09-17T10:46:35.306Z,98165.81
2022-09-17T10:49:29.128Z,98146.16
2022-09-17T10:52:27.010Z,98150.75
2022-09-17T10:55:12.374Z,98137.47
2022-09-17T10:58:05.875Z,98146.00
2022-09-17T11:01:01.071Z,98150.00
2022-09-17T11:03:51.390Z,98148.19
2022-09-17T11:06:27.131Z,98144.44
2022-09-17T11:09:27.996Z,98136.19
2022-09-17T11:12:17.796Z,98151.38
2022-09-17T11:15:01.484Z,98141.38
2022-09-17T11:18:14.507Z,98132.25
2022-09-17T11:21:30.632Z,98127.06
2022-09-17T11:24:11.005Z,98125.00
2022-09-17T11:27:08.728Z,98126.09
2022-09-17T11:29:58.301Z,98130.56
2022-09-17T11:32:57.015Z,98125.69
2022-09-17T11:35:37.523Z,98134.44
2022-09-17T11:38:27.487Z,98136.19
2022-09-17T11:41:10.944Z,98130.00
2022-09-17T11:43:48.457Z,98129.88
2022-09-17T11:46:21.354Z,98130.41
2022-09-17T11:49:13.641Z,98130.06
2022-09-17T11:51:48.976Z,98131.28
2022-09-17T11:54:25.323Z,98125.28
2022-09-17T11:57:09.510Z,98124.03
2022-09-17T11:59:56.399Z,98121.69
2022-09-17T12:02:38.229Z,98112.09
2022-09-17T12:05:15.100Z,98107.47
2022-09-17T12:07:59.463Z,98119.41
2022-09-17T12:10:41.662Z,98126.41
2022-09-17T12:13:51.381Z,98137.06
2022-09-17T12:16:50.611Z,98139.53
2022-09-17T12:19:27.626Z,98139.81
2022-09-17T12:22:01.972Z,98143.94
2022-09-17T12:24:31.967Z,98150.38
2022-09-17T12:27:52.878Z,98150.63
2022-09-17T12:30:28.587Z,98145.66
2022-09-17T12:33:34.720Z,98150.50
2022-09-17T12:36:27.643Z,98142.69
2022-09-17T12:39:25.044Z,98147.34
2022-09-17T12:42:03.610Z,98155.94
2022-09-17T12:45:03.864Z,98159.28
2022-09-17T12:48:01.739Z,98167.19
2022-09-17T12:50:59.053Z,98150.47
2022-09-17T12:53:33.699Z,98137.06
2022-09-17T12:56:29.622Z,98149.69
2022-09-17T12:59:11.771Z,98162.97
2022-09-17T13:02:00.377Z,98157.13
2022-09-17T13:05:02.950Z,98157.03
2022-09-17T13:08:16.284Z,98141.72
2022-09-17T13:11:04.733Z,98150.63
2022-09-17T13:13:58.854Z,98159.38
2022-09-17T13:16:54.503Z,98169.81
2022-09-17T13:19:39.765Z,98172.69
2022-09-17T13:22:18.581Z,98165.00
2022-09-17T13:24:48.932Z,98167.88
2022-09-17T13:27:28.321Z,98174.13
2022-09-17T13:29:54.657Z,98172.56
2022-09-17T13:32:33.389Z,98168.34
2022-09-17T13:35:11.567Z,98155.91
2022-09-17T13:37:57.640Z,98158.44
2022-09-17T13:40:37.356Z,98151.97
2022-09-17T13:43:03.836Z,98146.56
2022-09-17T13:45:33.721Z,98142.94
2022-09-17T13:48:07.929Z,98143.69
2022-09-17T13:50:40.460Z,98140.44
2022-09-17T13:53:12.558Z,98139.31
2022-09-17T13:55:54.647Z,98142.22
2022-09-17T13:58:21.009Z,98142.25
2022-09-17T14:01:11.603Z,98133.84
2022-09-17T14:03:41.779Z,98140.31
2022-09-17T14:06:08.514Z,98141.28
2022-09-17T14:08:44.423Z,98133.84
2022-09-17T14:11:23.334Z,98134.78
2022-09-17T14:13:56.466Z,98136.84
2022-09-17T14:16:29.214Z,98133.59
2022-09-17T14:19:15.160Z,98137.06
2022-09-17T14:22:02.657Z,98135.16
2022-09-17T14:24:46.569Z,98125.44
2022-09-17T14:27:46.024Z,98130.72
2022-09-17T14:30:29.051Z,98135.63
2022-09-17T14:33:01.440Z,98125.34
2022-09-17T14:35:44.807Z,98129.75
2022-09-17T14:38:16.881Z,98136.13
2022-09-17T14:40:47.381Z,98136.97
2022-09-17T14:43:38.557Z,98136.97
2022-09-17T14:46:14.864Z,98145.34
2022-09-17T14:48:41.407Z,98139.09
2022-09-17T14:51:19.686Z,98132.41
2022-09-17T14:53:49.403Z,98120.16
2022-09-17T14:56:22.410Z,98135.25
2022-09-17T14:58:53.217Z,98123.00
2022-09-17T15:01:29.138Z,98129.56
2022-09-17T15:04:25.592Z,98124.22
2022-09-17T15:06:52.436Z,98119.63
2022-09-17T15:09:27.750Z,98131.22
2022-09-17T15:11:59.983Z,98123.28
2022-09-17T15:14:36.628Z,98149.59
2022-09-17T15:17:04.509Z,98196.66
2022-09-17T15:19:40.237Z,98189.72
2022-09-17T15:22:20.578Z,98176.94
2022-09-17T15:25:01.970Z,98161.25
2022-09-17T15:27:35.704Z,98159.59
2022-09-17T15:30:16.019Z,98159.72
2022-09-17T15:32:55.707Z,98157.13
2022-09-17T15:35:30.049Z,98164.38
2022-09-17T15:38:21.618Z,98157.31
2022-09-17T15:40:47.735Z,98151.81
2022-09-17T15:43:25.196Z,98144.25
2022-09-17T15:45:51.669Z,98150.13
2022-09-17T15:48:36.949Z,98139.59
2022-09-17T15:51:07.035Z,98147.38
2022-09-17T15:53:35.718Z,98146.53
2022-09-17T15:56:13.055Z,98159.22
2022-09-17T15:58:42.179Z,98151.31
2022-09-17T16:01:11.894Z,98150.81
2022-09-17T16:03:38.262Z,98157.25
2022-09-17T16:06:27.557Z,98151.34
2022-09-17T16:08:57.570Z,98161.03
2022-09-17T16:11:32.126Z,98161.25
2022-09-17T16:14:00.987Z,98160.31
2022-09-17T16:16:38.150Z,98160.78
2022-09-17T16:19:06.654Z,98162.72
2022-09-17T16:21:33.334Z,98169.56
2022-09-17T16:23:59.786Z,98165.81
2022-09-17T16:26:31.339Z,98173.72
2022-09-17T16:29:07.628Z,98174.00
2022-09-17T16:31:34.570Z,98171.31
2022-09-17T16:34:01.231Z,98171.88
2022-09-17T16:36:30.899Z,98170.31
2022-09-17T16:38:58.287Z,98172.94
2022-09-17T16:41:24.744Z,98174.38
2022-09-17T16:43:51.162Z,98171.25
2022-09-17T16:46:17.638Z,98174.88
2022-09-17T16:48:46.229Z,98168.84
2022-09-17T16:51:14.123Z,98174.81
2022-09-17T16:53:41.025Z,98178.38
2022-09-17T16:56:14.263Z,98169.03
2022-09-17T16:58:41.635Z,98177.88
2022-09-17T17:01:10.785Z,98171.56
2022-09-17T17:03:37.299Z,98169.59
2022-09-17T17:06:04.354Z,98173.78
2022-09-17T17:08:34.409Z,98177.16
2022-09-17T17:11:01.507Z,98179.81
2022-09-17T17:13:28.171Z,98171.91
2022-09-17T17:15:55.225Z,98177.38
2022-09-17T17:18:22.803Z,98183.50
2022-09-17T17:20:49.340Z,98183.63
2022-09-17T17:23:16.636Z,98182.44
2022-09-17T17:25:43.141Z,98180.84
2022-09-17T17:28:09.998Z,98187.31
2022-09-17T17:30:37.466Z,98194.34
2022-09-17T17:33:04.050Z,98189.50
2022-09-17T17:35:30.687Z,98186.63
2022-09-17T17:37:57.130Z,98200.63
2022-09-17T17:40:23.976Z,98201.41
2022-09-17T17:42:54.207Z,98196.47
2022-09-17T17:45:20.719Z,98193.47
2022-09-17T17:47:47.509Z,98185.16
2022-09-17T17:50:15.702Z,98190.41
2022-09-17T17:52:47.607Z,98189.47
2022-09-17T17:55:16.226Z,98204.81
2022-09-17T17:57:42.698Z,98195.75
2022-09-17T18:00:11.776Z,98204.06
2022-09-17T18:02:38.441Z,98210.44
2022-09-17T18:05:05.455Z,98209.88
2022-09-17T18:07:32.025Z,98215.91
2022-09-17T18:09:58.553Z,98224.75
2022-09-17T18:12:26.966Z,98215.47
2022-09-17T18:14:53.838Z,98221.41
2022-09-17T18:17:20.656Z,98220.91
2022-09-17T18:19:47.091Z,98225.22
2022-09-17T18:22:14.090Z,98227.38
2022-09-17T18:24:40.536Z,98233.94
2022-09-17T18:27:07.080Z,98247.31
2022-09-17T18:29:33.535Z,98241.41
2022-09-17T18:32:00.162Z,98244.50
2022-09-17T18:34:26.706Z,98248.78
2022-09-17T18:36:53.203Z,98249.94
2022-09-17T18:39:57.073Z,98254.78
2022-09-17T18:42:08.730Z,98253.75
2022-09-17T18:44:35.171Z,98262.88
2022-09-17T18:47:01.954Z,98267.50
2022-09-17T18:49:28.660Z,98260.88
2022-09-17T18:51:55.396Z,98262.97
2022-09-17T18:54:21.862Z,98261.47
2022-09-17T18:56:48.444Z,98253.50
2022-09-17T18:59:14.920Z,98257.28
2022-09-17T19:01:41.438Z,98262.22
2022-09-17T19:04:08.304Z,98269.59
2022-09-17T19:06:35.843Z,98259.59
2022-09-17T19:09:04.594Z,98265.06
2022-09-17T19:11:31.118Z,98265.38
2022-09-17T19:13:58.074Z,98266.09
2022-09-17T19:16:24.935Z,98264.81
2022-09-17T19:18:51.650Z,98258.84
2022-09-17T19:21:23.380Z,98261.78
2022-09-17T19:23:52.422Z,98261.91
2022-09-17T19:26:22.443Z,98254.88
2022-09-17T19:28:53.663Z,98259.81
2022-09-17T19:31:20.916Z,98263.19
2022-09-17T19:33:47.661Z,98260.75
2022-09-17T19:36:17.455Z,98261.72
2022-09-17T19:38:45.306Z,98261.91
2022-09-17T19:41:19.329Z,98266.84
2022-09-17T19:43:47.025Z,98266.34
2022-09-17T19:46:18.006Z,98269.28
2022-09-17T19:48:51.543Z,98275.25
2022-09-17T19:51:19.756Z,98269.16
2022-09-17T19:53:46.569Z,98269.91
2022-09-17T19:56:17.647Z,98274.75
2022-09-17T19:58:44.495Z,98283.06
2022-09-17T20:01:12.234Z,98276.41
2022-09-17T20:03:40.942Z,98288.19
2022-09-17T20:06:11.461Z,98289.59
2022-09-17T20:08:47.024Z,98294.03
2022-09-17T20:11:16.300Z,98285.44
2022-09-17T20:13:43.317Z,98290.19
2022-09-17T20:16:12.446Z,98291.34
2022-09-17T20:18:39.606Z,98297.03
2022-09-17T20:21:11.667Z,98289.47
2022-09-17T20:23:38.917Z,98290.75
2022-09-17T20:26:06.383Z,98296.41
2022-09-17T20:28:34.024Z,98288.72
2022-09-17T20:31:12.531Z,98282.31
2022-09-17T20:33:39.482Z,98290.50
2022-09-17T20:36:11.800Z,98285.16
2022-09-17T20:41:27.327Z,98297.47
2022-09-17T20:43:54.599Z,98289.34
2022-09-17T20:46:28.642Z,98286.53
2022-09-17T20:48:58.021Z,98288.47
2022-09-17T20:51:29.003Z,98286.25
2022-09-17T20:53:57.199Z,98287.81
2022-09-17T20:56:27.973Z,98286.03
2022-09-17T20:59:04.080Z,98290.13
2022-09-17T21:01:34.284Z,98288.03
2022-09-17T21:04:02.139Z,98293.59
2022-09-17T21:06:32.131Z,98292.84
2022-09-17T21:09:00.031Z,98300.25
2022-09-17T21:11:27.820Z,98293.69
2022-09-17T21:13:54.307Z,98299.19
2022-09-17T21:16:21.068Z,98293.38
2022-09-17T21:18:47.975Z,98294.34
2022-09-17T21:21:17.889Z,98294.09
2022-09-17T21:23:44.851Z,98286.53
2022-09-17T21:26:18.136Z,98292.75
2022-09-17T21:28:48.134Z,98295.88
2022-09-17T21:31:21.196Z,98288.63
2022-09-17T21:33:53.062Z,98295.25
2022-09-17T21:36:22.414Z,98292.00
2022-09-17T21:38:57.678Z,98283.38
2022-09-17T21:41:25.847Z,98293.38
2022-09-17T21:43:53.365Z,98293.25
2022-09-17T21:46:28.408Z,98293.38
2022-09-17T21:49:02.285Z,98288.22
2022-09-17T21:51:36.315Z,98286.53
2022-09-17T21:54:08.229Z,98281.25
2022-09-17T21:56:35.237Z,98288.22
2022-09-17T21:59:05.960Z,98290.53
2022-09-17T22:01:42.244Z,98292.44
2022-09-17T22:04:12.943Z,98294.13
2022-09-17T22:06:40.999Z,98289.19
2022-09-17T22:09:14.431Z,98290.13
2022-09-17T22:11:41.035Z,98295.81
2022-09-17T22:14:14.579Z,98285.81
2022-09-17T22:16:44.683Z,98291.84
2022-09-17T22:19:14.770Z,98293.09
2022-09-17T22:21:46.458Z,98295.28
2022-09-17T22:24:15.510Z,98295.72
2022-09-17T22:26:46.803Z,98300.03
2022-09-17T22:29:20.378Z,98292.88
2022-09-17T22:31:48.143Z,98300.44
2022-09-17T22:34:19.713Z,98302.88
2022-09-17T22:36:46.579Z,98291.81
2022-09-17T22:39:13.145Z,98304.66
2022-09-17T22:41:45.564Z,98305.28
2022-09-17T22:44:17.675Z,98299.19
2022-09-17T22:46:46.832Z,98299.59
2022-09-17T22:49:14.087Z,98296.66
2022-09-17T22:51:41.754Z,98301.59
2022-09-17T22:54:12.192Z,98302.94
2022-09-17T22:56:39.884Z,98301.91
2022-09-17T22:59:07.281Z,98297.25
2022-09-17T23:01:36.228Z,98299.78
2022-09-17T23:04:04.288Z,98292.94
2022-09-17T23:06:34.991Z,98293.78
2022-09-17T23:09:01.919Z,98287.47
2022-09-17T23:11:32.501Z,98289.50
2022-09-17T23:14:02.793Z,98296.66
2022-09-17T23:16:35.465Z,98299.88
2022-09-17T23:19:01.942Z,98297.59
2022-09-17T23:21:28.418Z,98295.47
2022-09-17T23:23:54.886Z,98291.56
2022-09-17T23:26:25.307Z,98301.25
2022-09-17T23:28:53.056Z,98293.00
2022-09-17T23:31:23.739Z,98301.66
2022-09-17T23:33:51.911Z,98302.63
2022-09-17T23:36:23.393Z,98302.69
2022-09-17T23:38:51.119Z,98311.56
2022-09-17T23:41:20.816Z,98310.72
2022-09-17T23:43:53.791Z,98310.28
2022-09-17T23:46:22.717Z,98303.13
2022-09-17T23:48:51.124Z,98309.84
2022-09-17T23:51:17.915Z,98311.84
2022-09-17T23:53:44.638Z,98311.00
2022-09-17T23:56:21.911Z,98309.97
2022-09-17T23:58:49.993Z,98303.75
